createdAt,value
2022-10-03T00:01:40.907Z,0.65
2022-10-03T00:04:42.091Z,0.90
2022-10-03T00:07:21.437Z,1.13
2022-10-03T00:10:20.477Z,0.88
2022-10-03T00:13:08.347Z,0.45
2022-10-03T00:15:42.934Z,0.80
2022-10-03T00:18:49.080Z,0.65
2022-10-03T00:21:32.902Z,0.80
2022-10-03T00:24:11.647Z,0.73
2022-10-03T00:26:49.338Z,0.93
2022-10-03T00:29:24.295Z,0.73
2022-10-03T00:31:51.027Z,1.40
2022-10-03T00:34:48.094Z,0.70
2022-10-03T00:37:23.335Z,0.40
2022-10-03T00:40:03.151Z,0.75
2022-10-03T00:43:06.684Z,0.57
2022-10-03T00:45:55.630Z,0.95
2022-10-03T00:48:28.592Z,0.47
2022-10-03T00:51:29.117Z,0.70
2022-10-03T00:54:18.362Z,0.45
2022-10-03T00:57:06.782Z,1.05
2022-10-03T01:00:08.273Z,0.38
2022-10-03T01:03:02.323Z,0.90
2022-10-03T01:05:47.922Z,0.70
2022-10-03T01:08:18.045Z,1.13
2022-10-03T01:11:03.640Z,0.70
2022-10-03T01:13:54.009Z,0.75
2022-10-03T01:16:38.948Z,0.55
2022-10-03T01:19:28.348Z,0.30
2022-10-03T01:22:03.648Z,0.68
2022-10-03T01:25:01.367Z,0.50
2022-10-03T01:28:05.615Z,0.40
2022-10-03T01:30:47.539Z,0.50
2022-10-03T01:33:28.366Z,0.90
2022-10-03T01:36:12.751Z,1.73
2022-10-03T01:38:47.198Z,0.82
2022-10-03T01:43:58.730Z,0.68
2022-10-03T01:47:24.592Z,0.73
2022-10-03T01:50:00.468Z,0.60
2022-10-03T01:52:32.823Z,0.50
2022-10-03T01:55:20.130Z,0.65
2022-10-03T01:58:00.984Z,0.40
2022-10-03T02:00:33.957Z,0.63
2022-10-03T02:03:17.113Z,0.63
2022-10-03T02:06:21.140Z,1.50
2022-10-03T02:08:48.497Z,0.88
2022-10-03T02:11:42.693Z,0.60
2022-10-03T02:14:27.351Z,0.57
2022-10-03T02:17:06.521Z,0.60
2022-10-03T02:19:51.635Z,0.38
2022-10-03T02:22:36.152Z,0.75
2022-10-03T02:25:20.756Z,0.95
2022-10-03T02:28:34.533Z,1.00
2022-10-03T02:31:19.191Z,0.57
2022-10-03T02:34:16.064Z,0.70
2022-10-03T02:37:01.734Z,0.40
2022-10-03T02:40:00.878Z,0.52
2022-10-03T02:42:51.531Z,0.60
2022-10-03T02:45:33.478Z,1.10
2022-10-03T02:48:38.195Z,1.08
2022-10-03T02:51:17.971Z,0.80
2022-10-03T02:54:23.522Z,1.25
2022-10-03T02:59:54.116Z,0.85
2022-10-03T03:03:06.112Z,0.75
2022-10-03T03:05:32.825Z,0.90
2022-10-03T03:08:24.490Z,0.77
2022-10-03T03:11:19.985Z,0.93
2022-10-03T03:13:55.619Z,1.20
2022-10-03T03:16:57.727Z,1.48
2022-10-03T03:19:39.497Z,1.70
2022-10-03T03:22:06.187Z,2.55
2022-10-03T03:24:49.456Z,1.83
2022-10-03T03:27:55.214Z,1.48
2022-10-03T03:30:29.247Z,1.60
2022-10-03T03:33:35.248Z,0.93
2022-10-03T03:36:20.690Z,1.13
2022-10-03T03:39:01.150Z,1.15
2022-10-03T03:41:52.660Z,1.10
2022-10-03T03:45:02.410Z,1.15
2022-10-03T03:47:47.884Z,1.42
2022-10-03T03:50:33.099Z,1.10
2022-10-03T03:53:21.925Z,0.47
2022-10-03T03:56:33.537Z,1.67
2022-10-03T03:59:26.438Z,1.50
2022-10-03T04:02:28.208Z,1.50
2022-10-03T04:05:26.703Z,1.30
2022-10-03T04:08:12.342Z,1.05
2022-10-03T04:11:25.504Z,1.17
2022-10-03T04:14:01.167Z,1.08
2022-10-03T04:16:55.419Z,1.58
2022-10-03T04:19:37.887Z,1.43
2022-10-03T04:22:39.149Z,1.23
2022-10-03T04:25:20.658Z,1.88
2022-10-03T04:28:02.508Z,1.10
2022-10-03T04:30:53.221Z,1.40
2022-10-03T04:33:23.080Z,0.90
2022-10-03T04:36:27.498Z,0.93
2022-10-03T04:39:10.520Z,0.68
2022-10-03T04:42:02.020Z,1.33
2022-10-03T04:45:04.756Z,0.70
2022-10-03T04:47:48.692Z,0.57
2022-10-03T04:50:44.221Z,0.50
2022-10-03T04:53:33.533Z,0.95
2022-10-03T04:56:12.864Z,0.40
2022-10-03T04:58:48.041Z,0.95
2022-10-03T05:01:23.500Z,0.25
2022-10-03T05:04:29.855Z,0.60
2022-10-03T05:07:36.704Z,0.50
2022-10-03T05:10:25.033Z,0.40
2022-10-03T05:13:02.525Z,0.40
2022-10-03T05:15:33.794Z,0.70
2022-10-03T05:18:26.772Z,0.73
2022-10-03T05:21:05.413Z,0.65
2022-10-03T05:24:14.151Z,0.55
2022-10-03T05:26:45.481Z,0.70
2022-10-03T05:29:27.880Z,0.63
2022-10-03T05:32:07.117Z,0.95
2022-10-03T05:34:41.602Z,1.48
2022-10-03T05:40:19.145Z,0.35
2022-10-03T05:42:55.527Z,1.02
2022-10-03T05:45:23.449Z,0.57
2022-10-03T05:47:53.566Z,0.57
2022-10-03T05:50:44.494Z,0.45
2022-10-03T05:53:39.073Z,0.90
2022-10-03T05:56:15.850Z,0.63
2022-10-03T05:58:55.716Z,0.30
2022-10-03T06:01:37.758Z,1.08
2022-10-03T06:04:33.030Z,0.80
2022-10-03T06:07:14.201Z,0.65
2022-10-03T06:10:18.635Z,0.80
2022-10-03T06:13:16.172Z,1.15
2022-10-03T06:16:03.022Z,0.30
2022-10-03T06:18:43.048Z,0.70
2022-10-03T06:21:51.143Z,0.70
2022-10-03T06:25:15.104Z,0.90
2022-10-03T06:27:59.628Z,0.52
2022-10-03T06:31:00.800Z,0.50
2022-10-03T06:34:04.849Z,0.65
2022-10-03T06:36:56.651Z,0.50
2022-10-03T06:39:55.527Z,1.17
2022-10-03T06:42:25.076Z,0.82
2022-10-03T06:44:57.630Z,1.33
2022-10-03T06:47:51.308Z,0.95
2022-10-03T06:50:44.064Z,0.88
2022-10-03T06:53:48.852Z,0.45
2022-10-03T06:56:19.190Z,0.90
2022-10-03T06:59:30.884Z,1.00
2022-10-03T07:02:22.363Z,0.80
2022-10-03T07:05:23.030Z,0.85
2022-10-03T07:08:21.500Z,0.40
2022-10-03T07:11:10.199Z,1.10
2022-10-03T07:13:56.532Z,0.60
2022-10-03T07:16:45.512Z,1.50
2022-10-03T07:19:20.071Z,0.50
2022-10-03T07:27:31.069Z,0.50
2022-10-03T07:30:14.079Z,0.75
2022-10-03T07:33:22.702Z,0.45
2022-10-03T07:36:27.127Z,0.68
2022-10-03T07:39:10.803Z,1.02
2022-10-03T07:42:02.351Z,0.55
2022-10-03T07:45:19.947Z,0.30
2022-10-03T07:48:08.633Z,0.57
2022-10-03T07:50:59.577Z,0.80
2022-10-03T07:54:06.406Z,0.63
2022-10-03T07:56:42.790Z,0.85
2022-10-03T07:59:47.390Z,0.95
2022-10-03T08:02:42.341Z,0.70
2022-10-03T08:05:29.815Z,0.52
2022-10-03T08:08:19.044Z,1.27
2022-10-03T08:11:33.804Z,0.77
2022-10-03T08:14:01.834Z,0.95
2022-10-03T08:17:05.937Z,0.70
2022-10-03T08:20:23.217Z,0.88
2022-10-03T08:23:11.731Z,1.00
2022-10-03T08:26:11.531Z,0.80
2022-10-03T08:28:50.621Z,1.08
2022-10-03T08:31:45.045Z,1.13
2022-10-03T08:34:33.740Z,0.55
2022-10-03T08:37:00.471Z,1.55
2022-10-03T08:39:49.150Z,0.60
2022-10-03T08:42:44.962Z,0.50
2022-10-03T08:45:20.518Z,0.28
2022-10-03T08:48:13.729Z,0.55
2022-10-03T08:50:56.748Z,1.17
2022-10-03T08:53:41.527Z,0.50
2022-10-03T08:56:35.373Z,0.93
2022-10-03T08:59:27.249Z,0.25
2022-10-03T09:02:18.664Z,0.40
2022-10-03T09:05:04.073Z,0.10
2022-10-03T09:07:39.049Z,0.28
2022-10-03T09:10:22.761Z,0.28
2022-10-03T09:13:14.397Z,0.30
2022-10-03T09:16:02.865Z,0.40
2022-10-03T09:18:35.704Z,0.20
2022-10-03T09:21:24.645Z,0.82
2022-10-03T09:24:10.375Z,0.20
2022-10-03T09:27:15.117Z,0.28
2022-10-03T09:30:16.384Z,0.55
2022-10-03T09:32:43.121Z,0.40
2022-10-03T09:35:51.067Z,0.40
2022-10-03T09:38:35.599Z,0.57
2022-10-03T09:41:21.128Z,0.40
2022-10-03T09:43:58.993Z,0.52
2022-10-03T09:47:07.829Z,0.60
2022-10-03T09:50:17.392Z,0.40
2022-10-03T09:53:21.642Z,0.30
2022-10-03T09:56:25.540Z,0.57
2022-10-03T09:59:13.984Z,0.25
2022-10-03T10:01:53.685Z,0.40
2022-10-03T10:04:54.889Z,0.30
2022-10-03T10:07:40.810Z,0.17
2022-10-03T10:10:35.640Z,0.20
2022-10-03T10:13:44.265Z,0.70
2022-10-03T10:16:48.127Z,0.32
2022-10-03T10:19:30.549Z,0.95
2022-10-03T10:22:09.646Z,0.60
2022-10-03T10:25:17.102Z,0.20
2022-10-03T10:28:02.430Z,0.52
2022-10-03T10:30:50.552Z,0.40
2022-10-03T10:33:36.941Z,0.22
2022-10-03T10:36:22.332Z,0.40
2022-10-03T10:39:00.067Z,0.40
2022-10-03T10:42:13.590Z,0.40
2022-10-03T10:44:46.164Z,0.32
2022-10-03T10:47:18.080Z,0.30
2022-10-03T10:49:57.319Z,0.22
2022-10-03T10:52:26.858Z,0.28
2022-10-03T10:55:35.662Z,0.30
2022-10-03T10:58:08.633Z,0.20
2022-10-03T11:01:20.428Z,0.22
2022-10-03T11:04:11.988Z,0.30
2022-10-03T11:07:02.879Z,0.20
2022-10-03T11:10:00.763Z,0.30
2022-10-03T11:13:28.554Z,0.28
2022-10-03T11:16:21.174Z,0.57
2022-10-03T11:19:16.523Z,0.30
2022-10-03T11:21:54.792Z,0.43
2022-10-03T11:24:39.465Z,0.30
2022-10-03T11:27:09.084Z,0.57
2022-10-03T11:29:53.873Z,0.30
2022-10-03T11:32:59.177Z,0.50
2022-10-03T11:35:44.474Z,0.38
2022-10-03T11:38:32.972Z,0.55
2022-10-03T11:41:19.962Z,0.45
2022-10-03T11:44:04.286Z,0.30
2022-10-03T11:49:53.107Z,0.22
2022-10-03T11:52:50.004Z,0.30
2022-10-03T11:55:34.011Z,0.35
2022-10-03T11:58:11.347Z,0.43
2022-10-03T12:00:41.344Z,0.50
2022-10-03T12:03:23.709Z,0.43
2022-10-03T12:06:15.112Z,0.22
2022-10-03T12:08:55.259Z,0.20
2022-10-03T12:11:33.729Z,0.40
2022-10-03T12:14:11.503Z,0.20
2022-10-03T12:17:00.678Z,0.30
2022-10-03T12:19:56.932Z,0.38
2022-10-03T12:22:39.731Z,0.17
2022-10-03T12:25:23.290Z,0.25
2022-10-03T12:28:02.103Z,0.35
2022-10-03T12:30:40.948Z,0.35
2022-10-03T12:33:29.249Z,0.25
2022-10-03T12:36:34.636Z,0.40
2022-10-03T12:41:52.178Z,0.20
2022-10-03T12:44:43.595Z,0.10
2022-10-03T12:47:55.209Z,0.35
2022-10-03T12:50:43.374Z,0.30
2022-10-03T12:53:16.073Z,0.28
2022-10-03T12:55:55.141Z,0.22
2022-10-03T12:58:33.941Z,0.30
2022-10-03T13:01:18.973Z,0.40
2022-10-03T13:04:00.905Z,0.98
2022-10-03T13:07:02.185Z,0.30
2022-10-03T13:09:37.159Z,0.68
2022-10-03T13:12:16.960Z,0.30
2022-10-03T13:15:06.010Z,0.28
2022-10-03T13:17:49.415Z,0.20
2022-10-03T13:20:39.242Z,0.28
2022-10-03T13:23:29.715Z,0.22
2022-10-03T13:26:12.714Z,0.47
2022-10-03T13:29:29.951Z,0.30
2022-10-03T13:32:09.534Z,0.30
2022-10-03T13:35:32.908Z,0.20
2022-10-03T13:38:21.965Z,0.20
2022-10-03T13:41:19.614Z,0.20
2022-10-03T13:43:55.890Z,0.20
2022-10-03T13:46:33.617Z,0.55
2022-10-03T13:49:10.811Z,0.35
2022-10-03T13:51:59.459Z,0.38
2022-10-03T13:54:58.507Z,0.38
2022-10-03T13:57:35.693Z,0.10
2022-10-03T14:00:10.075Z,0.20
2022-10-03T14:05:40.860Z,0.50
2022-10-03T14:08:33.007Z,0.40
2022-10-03T14:11:29.984Z,0.30
2022-10-03T14:14:12.167Z,0.40
2022-10-03T14:16:47.590Z,0.20
2022-10-03T14:19:17.283Z,0.63
2022-10-03T14:21:57.660Z,0.20
2022-10-03T14:24:43.346Z,0.43
2022-10-03T14:27:45.497Z,0.38
2022-10-03T14:30:17.077Z,0.32
2022-10-03T14:33:13.419Z,0.30
2022-10-03T14:35:59.617Z,0.17
2022-10-03T14:39:00.295Z,0.40
2022-10-03T14:41:33.138Z,0.57
2022-10-03T14:44:21.349Z,0.32
2022-10-03T14:47:02.903Z,0.30
2022-10-03T14:52:40.650Z,0.60
2022-10-03T14:55:19.109Z,0.38
2022-10-03T14:58:11.096Z,0.75
2022-10-03T15:00:43.520Z,0.30
2022-10-03T15:03:16.688Z,0.35
2022-10-03T15:06:10.943Z,0.52
2022-10-03T15:08:42.930Z,0.20
2022-10-03T15:11:12.875Z,0.20
2022-10-03T15:13:47.199Z,0.20
2022-10-03T15:16:18.658Z,0.38
2022-10-03T15:19:02.764Z,0.40
2022-10-03T15:21:33.401Z,0.30
2022-10-03T15:24:07.281Z,0.35
2022-10-03T15:26:37.386Z,0.20
2022-10-03T15:29:14.988Z,0.10
2022-10-03T15:31:46.369Z,0.10
2022-10-03T15:34:25.954Z,0.22
2022-10-03T15:36:57.500Z,0.30
2022-10-03T15:39:42.099Z,0.38
2022-10-03T15:42:23.043Z,0.45
2022-10-03T15:45:05.543Z,0.20
2022-10-03T15:47:42.059Z,0.20
2022-10-03T15:50:50.014Z,0.40
2022-10-03T15:53:36.007Z,0.55
2022-10-03T15:56:11.579Z,0.60
2022-10-03T15:58:55.141Z,0.40
2022-10-03T16:01:40.836Z,0.40
2022-10-03T16:04:20.801Z,0.28
2022-10-03T16:06:59.571Z,0.28
2022-10-03T16:09:39.057Z,0.38
2022-10-03T16:12:47.286Z,0.10
2022-10-03T16:15:37.721Z,0.43
2022-10-03T16:18:12.204Z,0.22
2022-10-03T16:23:19.760Z,0.50
2022-10-03T16:25:57.298Z,0.30
2022-10-03T16:28:33.596Z,0.20
2022-10-03T16:31:04.973Z,0.40
2022-10-03T16:33:48.091Z,0.30
2022-10-03T16:36:19.789Z,0.32
2022-10-03T16:39:00.102Z,0.30
2022-10-03T16:41:32.939Z,0.60
2022-10-03T16:44:07.547Z,0.30
2022-10-03T16:49:29.598Z,0.30
2022-10-03T16:52:09.911Z,0.90
2022-10-03T16:54:37.552Z,0.85
2022-10-03T16:57:26.969Z,0.68
2022-10-03T16:59:55.665Z,0.55
2022-10-03T17:02:28.512Z,0.57
2022-10-03T17:05:03.978Z,0.57
2022-10-03T17:07:39.717Z,0.50
2022-10-03T17:10:24.259Z,0.45
2022-10-03T17:12:53.139Z,1.23
2022-10-03T17:15:23.165Z,0.28
2022-10-03T17:17:59.950Z,0.75
2022-10-03T17:20:54.231Z,0.60
2022-10-03T17:24:00.389Z,0.30
2022-10-03T17:26:39.149Z,0.70
2022-10-03T17:29:20.564Z,0.40
2022-10-03T17:32:14.572Z,0.35
2022-10-03T17:34:53.047Z,0.55
2022-10-03T17:37:47.894Z,0.20
2022-10-03T17:40:51.450Z,0.50
2022-10-03T17:43:58.853Z,0.60
2022-10-03T17:46:45.619Z,0.60
2022-10-03T17:49:12.333Z,0.70
2022-10-03T17:51:43.647Z,0.70
2022-10-03T17:54:19.073Z,0.88
2022-10-03T17:56:54.113Z,0.73
2022-10-03T17:59:30.274Z,0.73
2022-10-03T18:02:06.064Z,0.50
2022-10-03T18:04:41.220Z,0.45
2022-10-03T18:07:19.964Z,0.70
2022-10-03T18:09:52.101Z,0.65
2022-10-03T18:12:28.244Z,0.40
2022-10-03T18:15:07.197Z,0.63
2022-10-03T18:18:07.732Z,0.47
2022-10-03T18:20:50.488Z,0.77
2022-10-03T18:23:53.739Z,0.80
2022-10-03T18:26:31.229Z,0.68
2022-10-03T18:29:27.485Z,0.82
2022-10-03T18:31:59.051Z,0.60
2022-10-03T18:34:42.898Z,0.63
2022-10-03T18:37:27.556Z,1.33
2022-10-03T18:39:56.791Z,1.38
2022-10-03T18:42:28.347Z,0.90
2022-10-03T18:44:57.977Z,0.88
2022-10-03T18:47:31.159Z,1.13
2022-10-03T18:50:28.436Z,0.90
2022-10-03T18:53:10.796Z,1.05
2022-10-03T18:55:44.411Z,1.20
2022-10-03T18:58:32.805Z,0.77
2022-10-03T19:01:25.117Z,1.02
2022-10-03T19:03:59.156Z,0.88
2022-10-03T19:06:49.322Z,0.90
2022-10-03T19:09:19.681Z,1.48
2022-10-03T19:12:18.402Z,1.10
2022-10-03T19:14:54.567Z,1.10
2022-10-03T19:17:33.433Z,0.93
2022-10-03T19:20:41.103Z,1.55
2022-10-03T19:23:26.422Z,1.75
2022-10-03T19:26:00.916Z,1.23
2022-10-03T19:34:05.720Z,1.67
2022-10-03T19:36:36.632Z,1.95
2022-10-03T19:39:05.073Z,3.08
2022-10-03T19:41:41.849Z,5.43
2022-10-03T19:44:17.802Z,3.85
2022-10-03T19:47:15.336Z,4.72
2022-10-03T19:50:01.801Z,3.67
2022-10-03T19:52:41.530Z,4.13
2022-10-03T19:55:11.195Z,3.80
2022-10-03T19:57:40.397Z,4.22
2022-10-03T20:00:21.074Z,3.40
2022-10-03T20:03:23.071Z,4.00
2022-10-03T20:05:53.536Z,2.95
2022-10-03T20:08:36.126Z,3.60
2022-10-03T20:11:14.020Z,2.88
2022-10-03T20:13:48.022Z,3.38
2022-10-03T20:16:18.061Z,2.55
2022-10-03T20:18:49.054Z,3.13
2022-10-03T20:21:20.614Z,2.80
2022-10-03T20:23:48.580Z,2.30
2022-10-03T20:26:32.383Z,2.70
2022-10-03T20:29:11.032Z,1.95
2022-10-03T20:31:38.890Z,1.83
2022-10-03T20:34:14.031Z,2.75
2022-10-03T20:36:46.427Z,2.35
2022-10-03T20:39:15.960Z,2.60
2022-10-03T20:41:43.141Z,2.60
2022-10-03T20:44:21.643Z,2.08
2022-10-03T20:46:55.423Z,1.98
2022-10-03T20:49:31.962Z,2.47
2022-10-03T20:52:01.264Z,2.13
2022-10-03T20:54:57.746Z,1.60
2022-10-03T20:57:52.749Z,1.90
2022-10-03T21:00:23.268Z,1.88
2022-10-03T21:03:25.460Z,2.42
2022-10-03T21:05:55.182Z,2.13
2022-10-03T21:08:29.913Z,1.60
2022-10-03T21:11:03.420Z,1.80
2022-10-03T21:13:43.941Z,2.28
2022-10-03T21:16:34.123Z,1.75
2022-10-03T21:19:04.943Z,1.70
2022-10-03T21:21:43.540Z,2.70
2022-10-03T21:24:30.921Z,2.70
2022-10-03T21:27:01.610Z,1.83
2022-10-03T21:29:32.695Z,2.17
2022-10-03T21:32:30.538Z,1.70
2022-10-03T21:35:21.106Z,2.10
2022-10-03T21:37:57.221Z,1.60
2022-10-03T21:40:52.657Z,1.88
2022-10-03T21:43:28.325Z,2.00
2022-10-03T21:46:18.816Z,1.35
2022-10-03T21:49:13.293Z,1.63
2022-10-03T21:51:49.565Z,1.85
2022-10-03T21:54:43.984Z,1.73
2022-10-03T21:57:34.851Z,1.67
2022-10-03T22:00:19.885Z,1.65
2022-10-03T22:03:14.500Z,1.88
2022-10-03T22:06:13.671Z,1.95
2022-10-03T22:08:44.453Z,1.92
2022-10-03T22:11:33.042Z,2.42
2022-10-03T22:14:29.126Z,1.80
2022-10-03T22:17:23.888Z,1.77
2022-10-03T22:20:20.090Z,1.75
2022-10-03T22:23:28.237Z,2.08
2022-10-03T22:26:32.592Z,1.45
2022-10-03T22:29:33.591Z,2.00
2022-10-03T22:32:08.654Z,2.08
2022-10-03T22:34:51.467Z,2.22
2022-10-03T22:37:18.365Z,2.10
2022-10-03T22:39:48.412Z,1.90
2022-10-03T22:42:16.288Z,1.92
2022-10-03T22:44:47.931Z,1.98
2022-10-03T22:47:23.179Z,2.50
2022-10-03T22:49:58.752Z,2.05
2022-10-03T22:52:28.748Z,1.50
2022-10-03T22:54:56.748Z,1.90
2022-10-03T22:57:25.521Z,2.10
2022-10-03T23:00:05.988Z,1.98
2022-10-03T23:02:36.446Z,2.28
2022-10-03T23:05:09.603Z,2.10
2022-10-03T23:07:36.580Z,2.67
2022-10-03T23:10:26.675Z,2.25
2022-10-03T23:13:04.092Z,1.77
2022-10-03T23:15:33.782Z,1.80
2022-10-03T23:18:21.559Z,2.65
2022-10-03T23:21:11.359Z,1.85
2022-10-03T23:24:11.383Z,2.83
2022-10-03T23:27:13.624Z,2.10
2022-10-03T23:29:40.687Z,2.30
2022-10-03T23:32:09.792Z,2.30
2022-10-03T23:34:36.578Z,1.60
2022-10-03T23:37:15.197Z,1.75
2022-10-03T23:40:07.977Z,2.00
2022-10-03T23:42:45.158Z,2.50
2022-10-03T23:45:16.814Z,2.40
2022-10-03T23:48:04.048Z,1.70
2022-10-03T23:50:42.406Z,2.00
2022-10-03T23:53:24.608Z,1.98
2022-10-03T23:55:51.524Z,2.22
2022-10-03T23:58:28.528Z,1.85
